sensor_id;sensor_type;location;lat;lon;timestamp;P1;durP1;ratioP1;P2;durP2;ratioP2
15476;SDS011;7840;42.702;23.296;2023-03-14T00:01:46;42.80;;;25.10;;
15476;SDS011;7840;42.702;23.296;2023-03-14T00:06:41;41.27;;;27.93;;
15476;SDS011;7840;42.702;23.296;2023-03-14T00:09:21;37.43;;;25.57;;
15476;SDS011;7840;42.702;23.296;2023-03-14T00:12:08;32.27;;;21.97;;
15476;SDS011;7840;42.702;23.296;2023-03-14T00:14:39;22.33;;;15.57;;
15476;SDS011;7840;42.702;23.296;2023-03-14T00:17:08;17.47;;;11.60;;
15476;SDS011;7840;42.702;23.296;2023-03-14T00:19:47;16.00;;;8.83;;
15476;SDS011;7840;42.702;23.296;2023-03-14T00:22:24;9.40;;;7.13;;
15476;SDS011;7840;42.702;23.296;2023-03-14T00:24:51;10.60;;;6.87;;
15476;SDS011;7840;42.702;23.296;2023-03-14T00:27:49;11.13;;;6.90;;
15476;SDS011;7840;42.702;23.296;2023-03-14T00:30:25;9.03;;;6.00;;
15476;SDS011;7840;42.702;23.296;2023-03-14T00:32:56;8.47;;;6.07;;
15476;SDS011;7840;42.702;23.296;2023-03-14T00:35:24;13.50;;;6.47;;
15476;SDS011;7840;42.702;23.296;2023-03-14T00:37:53;10.33;;;6.30;;
15476;SDS011;7840;42.702;23.296;2023-03-14T00:40:23;7.47;;;5.53;;
15476;SDS011;7840;42.702;23.296;2023-03-14T00:43:07;6.73;;;5.20;;
15476;SDS011;7840;42.702;23.296;2023-03-14T00:45:37;7.53;;;5.73;;
15476;SDS011;7840;42.702;23.296;2023-03-14T00:48:04;9.07;;;5.83;;
15476;SDS011;7840;42.702;23.296;2023-03-14T00:50:35;6.00;;;5.40;;
15476;SDS011;7840;42.702;23.296;2023-03-14T00:53:20;6.70;;;5.80;;
15476;SDS011;7840;42.702;23.296;2023-03-14T00:55:53;8.53;;;5.97;;
15476;SDS011;7840;42.702;23.296;2023-03-14T00:58:21;6.43;;;5.60;;
15476;SDS011;7840;42.702;23.296;2023-03-14T01:00:50;8.13;;;6.00;;
15476;SDS011;7840;42.702;23.296;2023-03-14T01:03:19;9.23;;;6.07;;
15476;SDS011;7840;42.702;23.296;2023-03-14T01:06:05;8.27;;;5.60;;
15476;SDS011;7840;42.702;23.296;2023-03-14T01:08:36;6.77;;;5.57;;
15476;SDS011;7840;42.702;23.296;2023-03-14T01:11:07;10.57;;;6.27;;
15476;SDS011;7840;42.702;23.296;2023-03-14T01:13:49;11.37;;;5.77;;
15476;SDS011;7840;42.702;23.296;2023-03-14T01:16:18;9.00;;;5.77;;
15476;SDS011;7840;42.702;23.296;2023-03-14T01:18:45;10.50;;;6.60;;
15476;SDS011;7840;42.702;23.296;2023-03-14T01:21:16;12.47;;;7.37;;
15476;SDS011;7840;42.702;23.296;2023-03-14T01:23:49;11.77;;;8.40;;
15476;SDS011;7840;42.702;23.296;2023-03-14T01:26:30;13.73;;;8.57;;
15476;SDS011;7840;42.702;23.296;2023-03-14T01:28:58;11.00;;;9.07;;
15476;SDS011;7840;42.702;23.296;2023-03-14T01:31:26;13.73;;;9.20;;
15476;SDS011;7840;42.702;23.296;2023-03-14T01:33:56;11.30;;;9.33;;
15476;SDS011;7840;42.702;23.296;2023-03-14T01:36:45;15.97;;;9.17;;
15476;SDS011;7840;42.702;23.296;2023-03-14T01:51:44;15.50;;;11.27;;
15476;SDS011;7840;42.702;23.296;2023-03-14T01:54:26;14.13;;;10.73;;
15476;SDS011;7840;42.702;23.296;2023-03-14T01:57:03;16.77;;;11.37;;
15476;SDS011;7840;42.702;23.296;2023-03-14T01:59:46;15.30;;;11.30;;
15476;SDS011;7840;42.702;23.296;2023-03-14T02:05:19;23.60;;;15.20;;
15476;SDS011;7840;42.702;23.296;2023-03-14T02:07:48;19.60;;;15.20;;
15476;SDS011;7840;42.702;23.296;2023-03-14T02:13:18;18.40;;;13.47;;
15476;SDS011;7840;42.702;23.296;2023-03-14T02:15:52;19.10;;;13.93;;
15476;SDS011;7840;42.702;23.296;2023-03-14T02:18:19;19.67;;;14.37;;
15476;SDS011;7840;42.702;23.296;2023-03-14T02:20:54;19.03;;;13.43;;
15476;SDS011;7840;42.702;23.296;2023-03-14T02:23:26;25.50;;;14.27;;
15476;SDS011;7840;42.702;23.296;2023-03-14T02:25:57;21.27;;;14.10;;
15476;SDS011;7840;42.702;23.296;2023-03-14T02:31:27;16.83;;;12.73;;
15476;SDS011;7840;42.702;23.296;2023-03-14T02:33:56;17.77;;;13.03;;
15476;SDS011;7840;42.702;23.296;2023-03-14T02:36:24;22.50;;;13.73;;
15476;SDS011;7840;42.702;23.296;2023-03-14T02:38:53;19.50;;;14.43;;
15476;SDS011;7840;42.702;23.296;2023-03-14T02:41:22;19.30;;;13.57;;
15476;SDS011;7840;42.702;23.296;2023-03-14T02:43:49;16.70;;;13.17;;
15476;SDS011;7840;42.702;23.296;2023-03-14T02:46:18;18.00;;;12.73;;
15476;SDS011;7840;42.702;23.296;2023-03-14T02:51:29;17.57;;;13.10;;
15476;SDS011;7840;42.702;23.296;2023-03-14T02:53:56;18.27;;;12.70;;
15476;SDS011;7840;42.702;23.296;2023-03-14T02:56:24;17.97;;;11.50;;
15476;SDS011;7840;42.702;23.296;2023-03-14T02:58:51;17.30;;;11.37;;
15476;SDS011;7840;42.702;23.296;2023-03-14T03:01:19;16.17;;;12.13;;
15476;SDS011;7840;42.702;23.296;2023-03-14T03:03:46;15.37;;;12.00;;
15476;SDS011;7840;42.702;23.296;2023-03-14T03:06:18;14.70;;;11.57;;
15476;SDS011;7840;42.702;23.296;2023-03-14T03:08:47;15.23;;;11.40;;
15476;SDS011;7840;42.702;23.296;2023-03-14T03:11:15;16.73;;;12.50;;
15476;SDS011;7840;42.702;23.296;2023-03-14T03:13:42;18.53;;;12.63;;
15476;SDS011;7840;42.702;23.296;2023-03-14T03:16:10;18.77;;;12.70;;
15476;SDS011;7840;42.702;23.296;2023-03-14T03:18:50;17.10;;;12.00;;
15476;SDS011;7840;42.702;23.296;2023-03-14T03:21:18;23.13;;;13.23;;
15476;SDS011;7840;42.702;23.296;2023-03-14T03:23:50;18.97;;;13.03;;
15476;SDS011;7840;42.702;23.296;2023-03-14T03:26:17;17.57;;;12.00;;
15476;SDS011;7840;42.702;23.296;2023-03-14T03:28:45;17.63;;;12.30;;
15476;SDS011;7840;42.702;23.296;2023-03-14T03:31:12;19.83;;;12.30;;
15476;SDS011;7840;42.702;23.296;2023-03-14T03:33:45;61.43;;;33.97;;
15476;SDS011;7840;42.702;23.296;2023-03-14T03:36:12;37.77;;;21.83;;
15476;SDS011;7840;42.702;23.296;2023-03-14T03:38:40;19.60;;;12.07;;
15476;SDS011;7840;42.702;23.296;2023-03-14T03:41:08;19.13;;;13.10;;
15476;SDS011;7840;42.702;23.296;2023-03-14T03:43:36;17.70;;;13.07;;
15476;SDS011;7840;42.702;23.296;2023-03-14T03:46:04;20.33;;;13.63;;
15476;SDS011;7840;42.702;23.296;2023-03-14T03:51:14;16.93;;;12.47;;
15476;SDS011;7840;42.702;23.296;2023-03-14T03:53:41;15.90;;;11.30;;
15476;SDS011;7840;42.702;23.296;2023-03-14T03:56:10;16.63;;;12.37;;
15476;SDS011;7840;42.702;23.296;2023-03-14T03:58:38;15.83;;;11.40;;
15476;SDS011;7840;42.702;23.296;2023-03-14T04:01:07;18.93;;;12.43;;
15476;SDS011;7840;42.702;23.296;2023-03-14T04:03:39;18.40;;;12.03;;
15476;SDS011;7840;42.702;23.296;2023-03-14T04:06:07;22.50;;;12.97;;
15476;SDS011;7840;42.702;23.296;2023-03-14T04:08:35;16.27;;;11.77;;
15476;SDS011;7840;42.702;23.296;2023-03-14T04:11:03;18.00;;;11.93;;
15476;SDS011;7840;42.702;23.296;2023-03-14T04:13:32;21.40;;;12.70;;
15476;SDS011;7840;42.702;23.296;2023-03-14T04:15:59;18.30;;;12.07;;
15476;SDS011;7840;42.702;23.296;2023-03-14T04:18:30;17.67;;;12.70;;
15476;SDS011;7840;42.702;23.296;2023-03-14T04:21:02;24.70;;;15.37;;
15476;SDS011;7840;42.702;23.296;2023-03-14T04:23:30;19.10;;;13.53;;
15476;SDS011;7840;42.702;23.296;2023-03-14T04:26:00;29.27;;;17.67;;
15476;SDS011;7840;42.702;23.296;2023-03-14T04:28:28;22.23;;;14.23;;
15476;SDS011;7840;42.702;23.296;2023-03-14T04:30:57;23.87;;;15.20;;
15476;SDS011;7840;42.702;23.296;2023-03-14T04:33:24;30.40;;;15.03;;
15476;SDS011;7840;42.702;23.296;2023-03-14T04:35:53;24.60;;;16.40;;
15476;SDS011;7840;42.702;23.296;2023-03-14T04:38:21;37.00;;;18.10;;
15476;SDS011;7840;42.702;23.296;2023-03-14T04:40:48;26.10;;;15.50;;
15476;SDS011;7840;42.702;23.296;2023-03-14T04:43:16;20.40;;;14.13;;
15476;SDS011;7840;42.702;23.296;2023-03-14T04:45:43;21.60;;;14.90;;
15476;SDS011;7840;42.702;23.296;2023-03-14T04:48:12;22.60;;;13.23;;
15476;SDS011;7840;42.702;23.296;2023-03-14T04:50:39;33.13;;;16.97;;
15476;SDS011;7840;42.702;23.296;2023-03-14T04:53:07;24.10;;;14.17;;
15476;SDS011;7840;42.702;23.296;2023-03-14T04:55:34;21.03;;;14.13;;
15476;SDS011;7840;42.702;23.296;2023-03-14T04:58:01;17.77;;;12.90;;
15476;SDS011;7840;42.702;23.296;2023-03-14T05:00:29;17.27;;;12.83;;
15476;SDS011;7840;42.702;23.296;2023-03-14T05:02:56;22.47;;;12.70;;
15476;SDS011;7840;42.702;23.296;2023-03-14T05:05:25;27.63;;;13.60;;
15476;SDS011;7840;42.702;23.296;2023-03-14T05:07:52;22.37;;;13.50;;
15476;SDS011;7840;42.702;23.296;2023-03-14T05:10:20;16.87;;;11.57;;
15476;SDS011;7840;42.702;23.296;2023-03-14T05:12:47;23.23;;;13.93;;
15476;SDS011;7840;42.702;23.296;2023-03-14T05:15:15;18.00;;;12.10;;
15476;SDS011;7840;42.702;23.296;2023-03-14T05:17:42;22.13;;;12.50;;
15476;SDS011;7840;42.702;23.296;2023-03-14T05:20:11;21.37;;;12.93;;
15476;SDS011;7840;42.702;23.296;2023-03-14T05:22:40;17.87;;;11.77;;
15476;SDS011;7840;42.702;23.296;2023-03-14T05:25:08;15.20;;;11.50;;
15476;SDS011;7840;42.702;23.296;2023-03-14T05:27:35;17.70;;;10.87;;
15476;SDS011;7840;42.702;23.296;2023-03-14T05:30:03;16.10;;;12.00;;
15476;SDS011;7840;42.702;23.296;2023-03-14T05:32:31;15.87;;;10.77;;
15476;SDS011;7840;42.702;23.296;2023-03-14T05:34:58;17.17;;;11.60;;
15476;SDS011;7840;42.702;23.296;2023-03-14T05:37:26;14.50;;;11.50;;
15476;SDS011;7840;42.702;23.296;2023-03-14T05:39:55;13.70;;;10.43;;
15476;SDS011;7840;42.702;23.296;2023-03-14T05:42:22;18.23;;;11.37;;
15476;SDS011;7840;42.702;23.296;2023-03-14T05:44:49;16.27;;;11.73;;
15476;SDS011;7840;42.702;23.296;2023-03-14T05:47:17;19.33;;;11.23;;
15476;SDS011;7840;42.702;23.296;2023-03-14T05:49:44;15.37;;;11.40;;
15476;SDS011;7840;42.702;23.296;2023-03-14T05:52:11;14.67;;;10.50;;
15476;SDS011;7840;42.702;23.296;2023-03-14T05:54:39;19.30;;;11.10;;
15476;SDS011;7840;42.702;23.296;2023-03-14T05:57:07;22.17;;;12.07;;
15476;SDS011;7840;42.702;23.296;2023-03-14T05:59:35;15.30;;;10.03;;
15476;SDS011;7840;42.702;23.296;2023-03-14T06:02:02;17.00;;;10.70;;
15476;SDS011;7840;42.702;23.296;2023-03-14T06:04:29;15.07;;;10.40;;
15476;SDS011;7840;42.702;23.296;2023-03-14T06:06:56;16.43;;;9.93;;
15476;SDS011;7840;42.702;23.296;2023-03-14T06:09:24;14.17;;;10.23;;
15476;SDS011;7840;42.702;23.296;2023-03-14T06:11:51;14.13;;;10.93;;
15476;SDS011;7840;42.702;23.296;2023-03-14T06:14:20;14.13;;;10.23;;
15476;SDS011;7840;42.702;23.296;2023-03-14T06:16:47;14.67;;;11.03;;
15476;SDS011;7840;42.702;23.296;2023-03-14T06:19:15;17.63;;;12.47;;
15476;SDS011;7840;42.702;23.296;2023-03-14T06:21:43;17.00;;;11.97;;
15476;SDS011;7840;42.702;23.296;2023-03-14T06:24:13;15.87;;;10.40;;
15476;SDS011;7840;42.702;23.296;2023-03-14T06:26:41;15.57;;;10.97;;
15476;SDS011;7840;42.702;23.296;2023-03-14T06:29:08;19.50;;;11.70;;
15476;SDS011;7840;42.702;23.296;2023-03-14T06:31:37;20.13;;;12.33;;
15476;SDS011;7840;42.702;23.296;2023-03-14T06:34:04;17.13;;;12.27;;
15476;SDS011;7840;42.702;23.296;2023-03-14T06:36:32;20.53;;;11.43;;
15476;SDS011;7840;42.702;23.296;2023-03-14T06:38:59;20.63;;;12.17;;
15476;SDS011;7840;42.702;23.296;2023-03-14T06:41:26;30.57;;;19.27;;
15476;SDS011;7840;42.702;23.296;2023-03-14T06:43:54;24.50;;;13.90;;
15476;SDS011;7840;42.702;23.296;2023-03-14T06:46:21;20.07;;;12.63;;
15476;SDS011;7840;42.702;23.296;2023-03-14T06:48:50;20.90;;;12.63;;
15476;SDS011;7840;42.702;23.296;2023-03-14T06:51:17;16.87;;;13.17;;
15476;SDS011;7840;42.702;23.296;2023-03-14T06:53:44;22.53;;;12.80;;
15476;SDS011;7840;42.702;23.296;2023-03-14T06:56:11;24.80;;;13.70;;
15476;SDS011;7840;42.702;23.296;2023-03-14T06:58:39;15.80;;;13.10;;
15476;SDS011;7840;42.702;23.296;2023-03-14T07:01:10;23.40;;;13.87;;
15476;SDS011;7840;42.702;23.296;2023-03-14T07:03:42;26.20;;;15.10;;
15476;SDS011;7840;42.702;23.296;2023-03-14T07:06:11;18.87;;;14.70;;
15476;SDS011;7840;42.702;23.296;2023-03-14T07:08:38;21.20;;;14.73;;
15476;SDS011;7840;42.702;23.296;2023-03-14T07:11:07;26.90;;;15.60;;
15476;SDS011;7840;42.702;23.296;2023-03-14T07:13:36;27.53;;;15.30;;
15476;SDS011;7840;42.702;23.296;2023-03-14T07:16:04;25.50;;;15.57;;
15476;SDS011;7840;42.702;23.296;2023-03-14T07:18:31;23.47;;;16.13;;
15476;SDS011;7840;42.702;23.296;2023-03-14T07:20:59;31.93;;;16.70;;
15476;SDS011;7840;42.702;23.296;2023-03-14T07:23:28;27.43;;;15.23;;
15476;SDS011;7840;42.702;23.296;2023-03-14T07:25:56;24.10;;;15.97;;
15476;SDS011;7840;42.702;23.296;2023-03-14T07:28:23;24.97;;;14.80;;
15476;SDS011;7840;42.702;23.296;2023-03-14T07:30:52;25.33;;;15.63;;
15476;SDS011;7840;42.702;23.296;2023-03-14T07:33:19;21.47;;;15.33;;
15476;SDS011;7840;42.702;23.296;2023-03-14T07:35:47;20.27;;;15.00;;
15476;SDS011;7840;42.702;23.296;2023-03-14T07:38:15;23.43;;;14.57;;
15476;SDS011;7840;42.702;23.296;2023-03-14T07:40:44;25.30;;;15.27;;
15476;SDS011;7840;42.702;23.296;2023-03-14T07:43:11;26.73;;;14.90;;
15476;SDS011;7840;42.702;23.296;2023-03-14T07:45:38;23.57;;;14.07;;
15476;SDS011;7840;42.702;23.296;2023-03-14T07:48:06;22.60;;;15.37;;
15476;SDS011;7840;42.702;23.296;2023-03-14T07:50:33;22.47;;;15.27;;
15476;SDS011;7840;42.702;23.296;2023-03-14T07:53:00;28.10;;;14.90;;
15476;SDS011;7840;42.702;23.296;2023-03-14T07:55:28;21.50;;;13.67;;
15476;SDS011;7840;42.702;23.296;2023-03-14T07:57:57;18.93;;;13.73;;
15476;SDS011;7840;42.702;23.296;2023-03-14T08:00:24;24.70;;;15.03;;
15476;SDS011;7840;42.702;23.296;2023-03-14T08:02:51;22.33;;;14.30;;
15476;SDS011;7840;42.702;23.296;2023-03-14T08:05:19;16.80;;;14.27;;
15476;SDS011;7840;42.702;23.296;2023-03-14T08:07:47;19.70;;;14.70;;
15476;SDS011;7840;42.702;23.296;2023-03-14T08:10:14;23.50;;;14.47;;
15476;SDS011;7840;42.702;23.296;2023-03-14T08:12:47;19.33;;;14.13;;
15476;SDS011;7840;42.702;23.296;2023-03-14T08:15:16;20.17;;;13.77;;
15476;SDS011;7840;42.702;23.296;2023-03-14T08:17:43;19.23;;;13.17;;
15476;SDS011;7840;42.702;23.296;2023-03-14T08:20:16;19.90;;;12.43;;
15476;SDS011;7840;42.702;23.296;2023-03-14T08:22:43;26.03;;;13.60;;
15476;SDS011;7840;42.702;23.296;2023-03-14T08:25:12;16.13;;;13.03;;
15476;SDS011;7840;42.702;23.296;2023-03-14T08:27:39;22.40;;;13.00;;
15476;SDS011;7840;42.702;23.296;2023-03-14T08:30:08;16.83;;;12.50;;
15476;SDS011;7840;42.702;23.296;2023-03-14T08:35:19;15.70;;;9.27;;
15476;SDS011;7840;42.702;23.296;2023-03-14T08:37:47;11.37;;;9.03;;
15476;SDS011;7840;42.702;23.296;2023-03-14T08:40:17;13.07;;;8.83;;
15476;SDS011;7840;42.702;23.296;2023-03-14T08:42:45;18.93;;;10.87;;
15476;SDS011;7840;42.702;23.296;2023-03-14T08:45:13;12.50;;;8.07;;
15476;SDS011;7840;42.702;23.296;2023-03-14T08:47:41;11.50;;;7.73;;
15476;SDS011;7840;42.702;23.296;2023-03-14T08:50:12;12.57;;;8.43;;
15476;SDS011;7840;42.702;23.296;2023-03-14T08:52:41;10.17;;;8.13;;
15476;SDS011;7840;42.702;23.296;2023-03-14T08:55:09;12.63;;;7.80;;
15476;SDS011;7840;42.702;23.296;2023-03-14T08:57:36;9.20;;;7.20;;
15476;SDS011;7840;42.702;23.296;2023-03-14T09:00:07;9.30;;;7.07;;
15476;SDS011;7840;42.702;23.296;2023-03-14T09:02:37;9.70;;;7.00;;
15476;SDS011;7840;42.702;23.296;2023-03-14T09:05:06;10.73;;;7.47;;
15476;SDS011;7840;42.702;23.296;2023-03-14T09:07:33;12.33;;;7.03;;
15476;SDS011;7840;42.702;23.296;2023-03-14T09:10:02;10.30;;;7.55;;
15476;SDS011;7840;42.702;23.296;2023-03-14T09:12:33;14.80;;;6.88;;
15476;SDS011;7840;42.702;23.296;2023-03-14T09:15:00;10.00;;;7.53;;
15476;SDS011;7840;42.702;23.296;2023-03-14T09:17:37;10.57;;;7.03;;
15476;SDS011;7840;42.702;23.296;2023-03-14T09:20:20;8.50;;;7.45;;
15476;SDS011;7840;42.702;23.296;2023-03-14T09:22:47;8.25;;;7.05;;
15476;SDS011;7840;42.702;23.296;2023-03-14T09:25:16;11.95;;;6.85;;
15476;SDS011;7840;42.702;23.296;2023-03-14T09:27:43;10.73;;;6.75;;
15476;SDS011;7840;42.702;23.296;2023-03-14T09:30:11;9.30;;;6.60;;
15476;SDS011;7840;42.702;23.296;2023-03-14T09:32:38;8.65;;;6.47;;
15476;SDS011;7840;42.702;23.296;2023-03-14T09:35:06;13.77;;;6.53;;
15476;SDS011;7840;42.702;23.296;2023-03-14T09:37:33;7.70;;;6.28;;
15476;SDS011;7840;42.702;23.296;2023-03-14T09:40:01;7.78;;;5.85;;
15476;SDS011;7840;42.702;23.296;2023-03-14T09:42:35;9.15;;;6.20;;
15476;SDS011;7840;42.702;23.296;2023-03-14T09:45:04;7.70;;;6.63;;
15476;SDS011;7840;42.702;23.296;2023-03-14T09:47:33;7.10;;;6.40;;
15476;SDS011;7840;42.702;23.296;2023-03-14T09:50:03;8.35;;;6.80;;
15476;SDS011;7840;42.702;23.296;2023-03-14T09:52:32;7.00;;;6.03;;
15476;SDS011;7840;42.702;23.296;2023-03-14T09:55:01;9.55;;;7.53;;
15476;SDS011;7840;42.702;23.296;2023-03-14T09:57:29;10.40;;;7.47;;
15476;SDS011;7840;42.702;23.296;2023-03-14T10:00:02;9.13;;;6.50;;
15476;SDS011;7840;42.702;23.296;2023-03-14T10:02:35;10.50;;;6.68;;
15476;SDS011;7840;42.702;23.296;2023-03-14T10:05:04;6.80;;;6.20;;
15476;SDS011;7840;42.702;23.296;2023-03-14T10:07:32;9.48;;;6.30;;
15476;SDS011;7840;42.702;23.296;2023-03-14T10:10:00;9.88;;;6.13;;
15476;SDS011;7840;42.702;23.296;2023-03-14T10:12:31;9.18;;;6.97;;
15476;SDS011;7840;42.702;23.296;2023-03-14T10:15:02;11.68;;;6.93;;
15476;SDS011;7840;42.702;23.296;2023-03-14T10:17:37;6.70;;;5.53;;
15476;SDS011;7840;42.702;23.296;2023-03-14T10:20:05;5.75;;;5.15;;
15476;SDS011;7840;42.702;23.296;2023-03-14T10:22:36;6.25;;;4.97;;
15476;SDS011;7840;42.702;23.296;2023-03-14T10:25:04;7.00;;;5.57;;
15476;SDS011;7840;42.702;23.296;2023-03-14T10:27:35;6.15;;;5.53;;
15476;SDS011;7840;42.702;23.296;2023-03-14T10:30:05;8.82;;;6.40;;
15476;SDS011;7840;42.702;23.296;2023-03-14T10:32:35;11.15;;;6.10;;
15476;SDS011;7840;42.702;23.296;2023-03-14T10:35:20;10.77;;;6.10;;
15476;SDS011;7840;42.702;23.296;2023-03-14T10:37:51;7.65;;;6.65;;
15476;SDS011;7840;42.702;23.296;2023-03-14T10:40:20;9.68;;;6.78;;
15476;SDS011;7840;42.702;23.296;2023-03-14T10:42:49;7.55;;;6.75;;
15476;SDS011;7840;42.702;23.296;2023-03-14T10:45:34;10.63;;;7.43;;
15476;SDS011;7840;42.702;23.296;2023-03-14T10:48:06;11.40;;;7.05;;
15476;SDS011;7840;42.702;23.296;2023-03-14T10:50:47;16.52;;;7.18;;
15476;SDS011;7840;42.702;23.296;2023-03-14T10:53:21;7.05;;;6.35;;
15476;SDS011;7840;42.702;23.296;2023-03-14T10:55:48;8.23;;;7.05;;
15476;SDS011;7840;42.702;23.296;2023-03-14T10:58:20;8.18;;;6.90;;
15476;SDS011;7840;42.702;23.296;2023-03-14T11:00:50;10.10;;;6.88;;
15476;SDS011;7840;42.702;23.296;2023-03-14T11:03:18;7.30;;;6.45;;
15476;SDS011;7840;42.702;23.296;2023-03-14T11:05:47;6.82;;;5.70;;
15476;SDS011;7840;42.702;23.296;2023-03-14T11:08:18;10.02;;;6.80;;
15476;SDS011;7840;42.702;23.296;2023-03-14T11:10:48;7.18;;;6.18;;
15476;SDS011;7840;42.702;23.296;2023-03-14T11:13:19;8.85;;;6.18;;
15476;SDS011;7840;42.702;23.296;2023-03-14T11:15:56;6.60;;;5.03;;
15476;SDS011;7840;42.702;23.296;2023-03-14T11:21:18;7.03;;;5.78;;
15476;SDS011;7840;42.702;23.296;2023-03-14T11:23:50;9.20;;;5.03;;
15476;SDS011;7840;42.702;23.296;2023-03-14T11:26:24;7.43;;;4.82;;
15476;SDS011;7840;42.702;23.296;2023-03-14T11:28:55;5.80;;;4.32;;
15476;SDS011;7840;42.702;23.296;2023-03-14T11:31:26;7.75;;;4.30;;
15476;SDS011;7840;42.702;23.296;2023-03-14T11:33:56;6.53;;;3.45;;
15476;SDS011;7840;42.702;23.296;2023-03-14T11:36:25;5.35;;;3.95;;
15476;SDS011;7840;42.702;23.296;2023-03-14T11:38:55;7.22;;;4.45;;
15476;SDS011;7840;42.702;23.296;2023-03-14T11:41:25;4.95;;;3.88;;
15476;SDS011;7840;42.702;23.296;2023-03-14T11:43:53;9.55;;;4.20;;
15476;SDS011;7840;42.702;23.296;2023-03-14T11:46:31;4.97;;;3.85;;
15476;SDS011;7840;42.702;23.296;2023-03-14T11:49:03;7.32;;;3.97;;
15476;SDS011;7840;42.702;23.296;2023-03-14T11:51:34;5.15;;;3.85;;
15476;SDS011;7840;42.702;23.296;2023-03-14T11:54:03;4.43;;;3.80;;
15476;SDS011;7840;42.702;23.296;2023-03-14T11:56:33;6.03;;;4.05;;
15476;SDS011;7840;42.702;23.296;2023-03-14T11:59:02;6.93;;;3.70;;
15476;SDS011;7840;42.702;23.296;2023-03-14T12:01:36;10.05;;;4.65;;
15476;SDS011;7840;42.702;23.296;2023-03-14T12:04:10;6.22;;;3.60;;
15476;SDS011;7840;42.702;23.296;2023-03-14T12:06:40;5.15;;;3.53;;
15476;SDS011;7840;42.702;23.296;2023-03-14T12:09:11;3.97;;;3.47;;
15476;SDS011;7840;42.702;23.296;2023-03-14T12:11:43;4.30;;;3.50;;
15476;SDS011;7840;42.702;23.296;2023-03-14T12:14:17;4.13;;;3.72;;
15476;SDS011;7840;42.702;23.296;2023-03-14T12:16:47;3.97;;;3.60;;
15476;SDS011;7840;42.702;23.296;2023-03-14T12:21:58;5.13;;;3.63;;
15476;SDS011;7840;42.702;23.296;2023-03-14T12:24:27;5.80;;;3.80;;
15476;SDS011;7840;42.702;23.296;2023-03-14T12:26:55;6.38;;;3.53;;
15476;SDS011;7840;42.702;23.296;2023-03-14T12:29:23;7.15;;;3.55;;
15476;SDS011;7840;42.702;23.296;2023-03-14T12:34:53;3.75;;;3.25;;
15476;SDS011;7840;42.702;23.296;2023-03-14T12:37:23;3.83;;;3.25;;
15476;SDS011;7840;42.702;23.296;2023-03-14T12:40:02;6.88;;;3.30;;
15476;SDS011;7840;42.702;23.296;2023-03-14T12:42:36;14.40;;;4.70;;
15476;SDS011;7840;42.702;23.296;2023-03-14T12:45:21;5.75;;;3.15;;
15476;SDS011;7840;42.702;23.296;2023-03-14T12:48:17;3.53;;;3.22;;
15476;SDS011;7840;42.702;23.296;2023-03-14T12:50:55;6.15;;;3.30;;
15476;SDS011;7840;42.702;23.296;2023-03-14T12:56:20;3.42;;;2.85;;
15476;SDS011;7840;42.702;23.296;2023-03-14T12:59:22;6.60;;;2.80;;
15476;SDS011;7840;42.702;23.296;2023-03-14T13:02:21;8.02;;;2.70;;
15476;SDS011;7840;42.702;23.296;2023-03-14T13:04:51;4.28;;;3.42;;
15476;SDS011;7840;42.702;23.296;2023-03-14T13:07:38;5.20;;;3.10;;
15476;SDS011;7840;42.702;23.296;2023-03-14T13:10:25;3.10;;;2.60;;
15476;SDS011;7840;42.702;23.296;2023-03-14T13:12:54;5.43;;;3.30;;
15476;SDS011;7840;42.702;23.296;2023-03-14T13:15:23;4.10;;;2.55;;
15476;SDS011;7840;42.702;23.296;2023-03-14T13:17:51;4.05;;;2.95;;
15476;SDS011;7840;42.702;23.296;2023-03-14T13:20:21;2.67;;;2.40;;
15476;SDS011;7840;42.702;23.296;2023-03-14T13:22:54;4.00;;;2.72;;
15476;SDS011;7840;42.702;23.296;2023-03-14T13:25:21;3.47;;;2.42;;
15476;SDS011;7840;42.702;23.296;2023-03-14T13:27:52;4.88;;;2.25;;
15476;SDS011;7840;42.702;23.296;2023-03-14T13:30:38;3.78;;;2.70;;
15476;SDS011;7840;42.702;23.296;2023-03-14T13:33:20;4.97;;;2.35;;
15476;SDS011;7840;42.702;23.296;2023-03-14T13:36:05;11.23;;;2.70;;
15476;SDS011;7840;42.702;23.296;2023-03-14T13:38:34;6.38;;;2.88;;
15476;SDS011;7840;42.702;23.296;2023-03-14T13:41:03;2.97;;;2.30;;
15476;SDS011;7840;42.702;23.296;2023-03-14T13:43:32;5.03;;;2.50;;
15476;SDS011;7840;42.702;23.296;2023-03-14T13:46:03;5.25;;;2.58;;
15476;SDS011;7840;42.702;23.296;2023-03-14T13:48:32;2.75;;;2.30;;
15476;SDS011;7840;42.702;23.296;2023-03-14T13:51:03;4.50;;;2.63;;
15476;SDS011;7840;42.702;23.296;2023-03-14T13:57:00;3.97;;;2.70;;
15476;SDS011;7840;42.702;23.296;2023-03-14T13:59:28;3.50;;;2.65;;
15476;SDS011;7840;42.702;23.296;2023-03-14T14:02:00;4.05;;;2.72;;
15476;SDS011;7840;42.702;23.296;2023-03-14T14:04:30;5.07;;;2.30;;
15476;SDS011;7840;42.702;23.296;2023-03-14T14:07:13;4.57;;;2.85;;
15476;SDS011;7840;42.702;23.296;2023-03-14T14:09:44;8.10;;;2.88;;
15476;SDS011;7840;42.702;23.296;2023-03-14T14:12:15;3.88;;;2.40;;
15476;SDS011;7840;42.702;23.296;2023-03-14T14:14:45;7.60;;;2.80;;
15476;SDS011;7840;42.702;23.296;2023-03-14T14:17:15;5.55;;;2.78;;
15476;SDS011;7840;42.702;23.296;2023-03-14T14:19:44;4.95;;;2.63;;
15476;SDS011;7840;42.702;23.296;2023-03-14T14:22:13;6.32;;;3.05;;
15476;SDS011;7840;42.702;23.296;2023-03-14T14:24:40;4.40;;;2.50;;
15476;SDS011;7840;42.702;23.296;2023-03-14T14:27:09;5.03;;;2.60;;
15476;SDS011;7840;42.702;23.296;2023-03-14T14:29:38;6.15;;;2.30;;
15476;SDS011;7840;42.702;23.296;2023-03-14T14:32:10;6.13;;;2.65;;
15476;SDS011;7840;42.702;23.296;2023-03-14T14:34:38;5.53;;;2.75;;
15476;SDS011;7840;42.702;23.296;2023-03-14T14:40:06;4.18;;;2.72;;
15476;SDS011;7840;42.702;23.296;2023-03-14T14:42:38;8.35;;;3.00;;
15476;SDS011;7840;42.702;23.296;2023-03-14T14:45:09;5.25;;;2.60;;
15476;SDS011;7840;42.702;23.296;2023-03-14T14:47:47;4.05;;;2.67;;
15476;SDS011;7840;42.702;23.296;2023-03-14T14:50:20;4.18;;;2.78;;
15476;SDS011;7840;42.702;23.296;2023-03-14T14:52:47;3.20;;;2.40;;
15476;SDS011;7840;42.702;23.296;2023-03-14T14:55:16;5.85;;;2.78;;
15476;SDS011;7840;42.702;23.296;2023-03-14T14:57:51;9.05;;;2.65;;
15476;SDS011;7840;42.702;23.296;2023-03-14T15:00:20;10.35;;;2.80;;
15476;SDS011;7840;42.702;23.296;2023-03-14T15:02:48;4.82;;;3.00;;
15476;SDS011;7840;42.702;23.296;2023-03-14T15:05:18;6.40;;;3.17;;
15476;SDS011;7840;42.702;23.296;2023-03-14T15:07:49;4.35;;;2.13;;
15476;SDS011;7840;42.702;23.296;2023-03-14T15:10:21;5.47;;;3.05;;
15476;SDS011;7840;42.702;23.296;2023-03-14T15:12:55;4.85;;;2.65;;
15476;SDS011;7840;42.702;23.296;2023-03-14T15:15:23;3.45;;;2.42;;
15476;SDS011;7840;42.702;23.296;2023-03-14T15:17:51;3.10;;;2.47;;
15476;SDS011;7840;42.702;23.296;2023-03-14T15:20:19;5.60;;;2.28;;
15476;SDS011;7840;42.702;23.296;2023-03-14T15:22:49;2.67;;;2.20;;
15476;SDS011;7840;42.702;23.296;2023-03-14T15:25:16;4.00;;;2.60;;
15476;SDS011;7840;42.702;23.296;2023-03-14T15:27:45;4.97;;;2.70;;
15476;SDS011;7840;42.702;23.296;2023-03-14T15:30:13;2.63;;;2.28;;
15476;SDS011;7840;42.702;23.296;2023-03-14T15:32:42;4.95;;;3.17;;
15476;SDS011;7840;42.702;23.296;2023-03-14T15:35:10;9.65;;;3.70;;
15476;SDS011;7840;42.702;23.296;2023-03-14T15:37:39;7.57;;;3.80;;
15476;SDS011;7840;42.702;23.296;2023-03-14T15:40:09;11.25;;;3.25;;
15476;SDS011;7840;42.702;23.296;2023-03-14T15:42:39;7.60;;;2.72;;